Time;durP1;ratioP1;P1;durP2;ratioP2;P2;SDS_P1;SDS_P2;PMS_P1;PMS_P2;Temp;Humidity;BMP_temperature;BMP_pressure;BME280_temperature;BME280_humidity;BME280_pressure;Samples;Min_cycle;Max_cycle;Signal;HPM_P1;HPM_P2
2021/10/09 00:02:08;;;;;;;;;;;;;;;14.56;41.45;102932.84;5105002;27;97691;-84
2021/10/09 00:04:36;;;;;;;;;;;;;;;14.55;41.32;102936.41;5123839;27;95817;-78
2021/10/09 00:07:02;;;;;;;;;;;;;;;14.76;41.27;102937.81;5119528;27;96555;-90
2021/10/09 00:09:29;;;;;;;;;;;;;;;14.87;40.95;102935.81;5116625;27;98076;-88
2021/10/09 00:11:55;;;;;;;;;;;;;;;14.32;41.64;102926.09;5119741;27;98080;-85
2021/10/09 00:14:22;;;;;;;;;;;;;;;14.46;41.57;102938.34;5117916;27;96648;-87
2021/10/09 00:16:49;;;;;;;;;;;;;;;14.86;40.93;102936.72;5113431;27;96688;-89
2021/10/09 00:19:16;;;;;;;;;;;;;;;14.71;41.30;102929.00;5094876;27;98120;-89
2021/10/09 00:21:44;;;;;;;;;;;;;;;14.81;40.83;102930.63;5090026;27;99076;-89
2021/10/09 00:24:11;;;;;;;;;;;;;;;14.75;41.06;102931.63;5095177;27;96781;-89
2021/10/09 00:26:37;;;;;;;;;;;;;;;14.75;41.01;102928.06;5113974;27;96834;-90
2021/10/09 00:29:04;;;;;;;;;;;;;;;14.05;42.30;102934.53;5121282;27;98164;-89
2021/10/09 00:31:30;;;;;;;;;;;;;;;13.87;42.90;102938.34;5121324;27;97098;-92
2021/10/09 00:33:57;;;;;;;;;;;;;;;14.45;41.90;102932.13;5119832;27;96490;-87
2021/10/09 00:36:23;;;;;;;;;;;;;;;14.25;41.96;102936.88;5119995;27;95974;-87
2021/10/09 00:38:51;;;;;;;;;;;;;;;14.35;41.74;102933.19;5118834;27;97839;-85
2021/10/09 00:41:17;;;;;;;;;;;;;;;14.20;42.09;102942.28;5144883;22;98346;-87
2021/10/09 00:43:43;;;;;;;;;;;;;;;14.65;41.11;102937.09;5099100;27;95795;-86
2021/10/09 00:46:09;;;;;;;;;;;;;;;14.33;42.22;102940.28;5074163;27;96691;-88
2021/10/09 00:48:36;;;;;;;;;;;;;;;14.32;41.87;102941.19;5088687;27;97814;-88
2021/10/09 00:51:03;;;;;;;;;;;;;;;14.33;41.76;102932.31;5087252;27;97720;-88
2021/10/09 00:53:31;;;;;;;;;;;;;;;14.64;41.41;102938.88;5085134;27;96803;-89
2021/10/09 00:56:00;;;;;;;;;;;;;;;14.56;41.51;102938.16;5089045;27;96752;-88
2021/10/09 00:58:28;;;;;;;;;;;;;;;14.41;41.51;102943.75;5071853;27;97789;-88
2021/10/09 01:00:55;;;;;;;;;;;;;;;14.61;41.28;102938.97;5088011;27;97887;-89
2021/10/09 01:03:21;;;;;;;;;;;;;;;14.58;41.61;102941.66;5100114;27;97052;-90
2021/10/09 01:05:50;;;;;;;;;;;;;;;14.58;41.67;102941.66;5102474;27;96613;-89
2021/10/09 01:08:16;;;;;;;;;;;;;;;14.54;41.85;102945.28;5101536;27;98632;-90
2021/10/09 01:10:43;;;;;;;;;;;;;;;14.58;41.46;102939.00;5110475;22;98797;-90
2021/10/09 01:13:10;;;;;;;;;;;;;;;14.70;41.09;102945.91;5089206;27;97103;-88
2021/10/09 01:15:36;;;;;;;;;;;;;;;14.66;41.81;102942.41;5085337;27;96770;-90
2021/10/09 01:18:07;;;;;;;;;;;;;;;14.66;41.37;102947.72;5092533;27;98911;-87
2021/10/09 01:20:43;;;;;;;;;;;;;;;14.59;41.29;102940.75;5084452;27;98624;-90
2021/10/09 01:23:10;;;;;;;;;;;;;;;14.47;41.39;102940.97;5071259;27;96695;-89
2021/10/09 01:25:36;;;;;;;;;;;;;;;14.26;41.66;102936.84;5069794;27;96770;-90
2021/10/09 01:28:02;;;;;;;;;;;;;;;14.03;41.83;102941.66;5073622;27;97878;-91
2021/10/09 01:30:29;;;;;;;;;;;;;;;14.24;41.80;102940.47;5071737;27;97910;-92
2021/10/09 01:32:55;;;;;;;;;;;;;;;14.29;42.08;102936.81;5089876;27;96771;-90
2021/10/09 01:35:21;;;;;;;;;;;;;;;13.79;42.55;102940.22;5102226;27;96227;-90
2021/10/09 01:37:49;;;;;;;;;;;;;;;14.12;42.00;102930.88;5082897;27;98169;-89
2021/10/09 01:40:15;;;;;;;;;;;;;;;14.02;42.27;102926.63;5071316;27;99364;-85
2021/10/09 01:42:41;;;;;;;;;;;;;;;13.75;42.42;102930.56;5098208;27;96485;-89
2021/10/09 01:45:08;;;;;;;;;;;;;;;13.78;42.78;102933.19;5093510;27;96935;-89
2021/10/09 01:47:38;;;;;;;;;;;;;;;14.14;42.12;102933.50;5093766;27;97833;-90
2021/10/09 01:50:05;;;;;;;;;;;;;;;14.03;42.13;102927.50;5084645;27;99167;-91
2021/10/09 01:52:31;;;;;;;;;;;;;;;13.92;42.35;102931.19;5071758;27;96578;-89
2021/10/09 01:54:59;;;;;;;;;;;;;;;14.03;41.98;102928.38;5069210;27;96819;-90
2021/10/09 01:57:25;;;;;;;;;;;;;;;14.16;41.75;102918.44;5073059;27;100066;-90
2021/10/09 01:59:51;;;;;;;;;;;;;;;14.10;41.79;102924.72;5088632;27;97955;-89
2021/10/09 02:02:17;;;;;;;;;;;;;;;14.19;41.84;102929.00;5103688;27;96187;-84
2021/10/09 02:04:44;;;;;;;;;;;;;;;14.19;41.55;102924.56;5103627;27;96554;-86
2021/10/09 02:07:15;;;;;;;;;;;;;;;14.14;41.85;102936.16;5082828;27;97726;-88
2021/10/09 02:09:41;;;;;;;;;;;;;;;13.97;41.88;102923.16;5076990;27;98964;-86
2021/10/09 02:12:09;;;;;;;;;;;;;;;14.20;41.75;102928.09;5104211;27;96355;-80
2021/10/09 02:14:40;;;;;;;;;;;;;;;13.86;42.26;102936.59;5104433;27;96062;-83
2021/10/09 02:25:35;;;;;;;;;;;;;;;13.09;43.61;102938.44;5096080;27;95962;-88
2021/10/09 02:28:03;;;;;;;;;;;;;;;13.32;43.22;102938.22;5092275;27;98045;-86
2021/10/09 02:30:29;;;;;;;;;;;;;;;13.19;43.37;102936.63;5093743;27;99486;-83
2021/10/09 02:32:55;;;;;;;;;;;;;;;12.87;43.84;102939.56;5099952;27;95961;-90
2021/10/09 02:35:21;;;;;;;;;;;;;;;13.00;43.84;102935.00;5101113;27;96765;-90
2021/10/09 02:37:48;;;;;;;;;;;;;;;13.34;43.30;102932.88;5095938;27;97894;-88
2021/10/09 02:40:14;;;;;;;;;;;;;;;12.89;44.00;102940.44;5084659;27;98121;-90
2021/10/09 02:42:41;;;;;;;;;;;;;;;13.05;43.55;102938.50;5085833;27;97113;-89
2021/10/09 02:45:09;;;;;;;;;;;;;;;12.99;43.49;102939.47;5084692;27;96765;-89
2021/10/09 02:47:35;;;;;;;;;;;;;;;12.84;44.29;102939.59;5081344;27;98929;-89
2021/10/09 02:50:03;;;;;;;;;;;;;;;12.83;44.15;102947.56;5087395;27;97554;-90
2021/10/09 02:52:29;;;;;;;;;;;;;;;13.10;43.73;102953.47;5090790;27;96743;-90
2021/10/09 02:54:55;;;;;;;;;;;;;;;12.69;44.34;102950.34;5091342;27;97115;-91
2021/10/09 02:57:22;;;;;;;;;;;;;;;12.68;44.26;102948.59;5089906;27;98224;-90
2021/10/09 02:59:48;;;;;;;;;;;;;;;13.01;43.67;102950.03;5089232;27;98740;-90
2021/10/09 03:02:15;;;;;;;;;;;;;;;12.42;44.56;102947.94;5075337;27;96773;-89
2021/10/09 03:04:42;;;;;;;;;;;;;;;12.88;43.97;102946.63;5089061;27;96620;-90
2021/10/09 03:07:08;;;;;;;;;;;;;;;12.62;44.81;102948.66;5088361;27;98931;-90
2021/10/09 03:09:34;;;;;;;;;;;;;;;12.55;44.52;102946.94;5087836;27;98777;-90
2021/10/09 03:12:00;;;;;;;;;;;;;;;13.24;44.21;102945.41;5089095;27;96735;-90
2021/10/09 03:14:27;;;;;;;;;;;;;;;12.88;43.82;102943.09;5094942;27;96460;-83
2021/10/09 03:16:53;;;;;;;;;;;;;;;12.77;44.18;102951.19;5093942;27;97870;-90
2021/10/09 03:19:21;;;;;;;;;;;;;;;12.82;44.07;102945.81;5075319;27;97679;-91
2021/10/09 03:21:47;;;;;;;;;;;;;;;13.02;44.63;102955.34;5085510;27;96514;-84
2021/10/09 03:24:14;;;;;;;;;;;;;;;12.92;44.04;102952.81;5082185;27;96650;-90
2021/10/09 03:26:40;;;;;;;;;;;;;;;13.07;43.78;102952.63;5097374;27;97881;-84
2021/10/09 03:29:07;;;;;;;;;;;;;;;12.81;44.41;102950.22;5101832;27;97777;-89
2021/10/09 03:31:33;;;;;;;;;;;;;;;12.54;44.82;102951.38;5094550;27;96437;-90
2021/10/09 03:34:02;;;;;;;;;;;;;;;13.28;43.93;102960.38;5098975;27;96534;-91
2021/10/09 03:36:43;;;;;;;;;;;;;;;12.92;44.10;102961.66;5080016;27;97641;-83
2021/10/09 03:39:16;;;;;;;;;;;;;;;12.77;44.45;102965.31;5097683;27;98043;-89
2021/10/09 03:41:46;;;;;;;;;;;;;;;12.49;44.92;102962.91;5099440;27;95820;-89
2021/10/09 03:44:13;;;;;;;;;;;;;;;13.03;43.88;102965.06;5093509;27;96450;-89
2021/10/09 03:46:43;;;;;;;;;;;;;;;13.11;43.83;102964.97;5079961;27;98162;-89
2021/10/09 03:49:20;;;;;;;;;;;;;;;12.77;44.30;102967.09;5096514;27;98873;-89
2021/10/09 03:54:31;;;;;;;;;;;;;;;12.66;45.03;102964.56;5097088;27;96709;-87
2021/10/09 03:56:58;;;;;;;;;;;;;;;12.36;45.03;102960.38;5096721;27;97864;-88
2021/10/09 03:59:24;;;;;;;;;;;;;;;12.51;45.21;102967.31;5098000;27;98707;-89
2021/10/09 04:01:50;;;;;;;;;;;;;;;12.65;44.48;102960.13;5096044;27;96847;-88
2021/10/09 04:04:17;;;;;;;;;;;;;;;12.66;44.50;102966.31;5097689;27;96740;-88
2021/10/09 04:06:43;;;;;;;;;;;;;;;13.13;43.81;102963.19;5096120;27;99242;-88
2021/10/09 04:09:09;;;;;;;;;;;;;;;12.94;43.95;102962.50;5097655;27;98097;-87
2021/10/09 04:11:36;;;;;;;;;;;;;;;12.95;44.12;102963.38;5094556;27;96684;-91
2021/10/09 04:14:03;;;;;;;;;;;;;;;12.89;44.41;102963.44;5088472;27;97120;-89
2021/10/09 04:16:29;;;;;;;;;;;;;;;12.37;45.15;102961.25;5079866;27;97803;-90
2021/10/09 04:18:55;;;;;;;;;;;;;;;12.91;44.67;102959.00;5089008;27;98779;-90
2021/10/09 04:21:21;;;;;;;;;;;;;;;12.71;44.80;102962.72;5097365;27;96772;-90
2021/10/09 04:23:48;;;;;;;;;;;;;;;12.93;44.07;102966.03;5098089;27;96345;-88
2021/10/09 04:26:14;;;;;;;;;;;;;;;12.26;45.24;102957.81;5092435;27;98101;-90
2021/10/09 04:28:41;;;;;;;;;;;;;;;12.29;45.01;102966.59;5097068;27;96753;-88
2021/10/09 04:31:07;;;;;;;;;;;;;;;12.03;45.90;102968.56;5099589;27;96504;-87
2021/10/09 04:33:34;;;;;;;;;;;;;;;12.24;45.46;102968.41;5088958;27;96656;-87
2021/10/09 04:36:00;;;;;;;;;;;;;;;12.15;45.43;102973.78;5075877;27;96624;-89
2021/10/09 04:41:11;;;;;;;;;;;;;;;12.13;45.37;102975.56;5088393;27;97917;-88
2021/10/09 04:43:38;;;;;;;;;;;;;;;12.02;45.70;102972.09;5082479;27;96490;-89
2021/10/09 04:46:06;;;;;;;;;;;;;;;11.96;45.90;102967.72;5093319;27;97808;-87
2021/10/09 04:48:32;;;;;;;;;;;;;;;11.97;45.65;102969.47;5103326;27;98044;-90
2021/10/09 04:50:58;;;;;;;;;;;;;;;12.28;45.54;102966.59;5104700;27;95770;-85
2021/10/09 04:53:24;;;;;;;;;;;;;;;12.15;45.78;102972.88;5105391;27;95952;-82
2021/10/09 04:55:51;;;;;;;;;;;;;;;11.83;46.08;102973.97;5105064;27;97773;-87
2021/10/09 04:58:17;;;;;;;;;;;;;;;12.26;45.38;102966.66;5104801;27;97771;-86
2021/10/09 05:00:43;;;;;;;;;;;;;;;11.93;45.87;102967.75;5087351;27;96548;-76
2021/10/09 05:03:11;;;;;;;;;;;;;;;12.38;45.07;102969.19;5085088;27;95975;-79
2021/10/09 05:05:37;;;;;;;;;;;;;;;11.95;46.04;102975.66;5079817;27;97791;-90
2021/10/09 05:08:03;;;;;;;;;;;;;;;12.53;45.79;102978.81;5077977;27;98810;-91
2021/10/09 05:10:29;;;;;;;;;;;;;;;12.52;44.67;102970.84;5084778;27;95960;-75
2021/10/09 05:12:56;;;;;;;;;;;;;;;12.08;45.38;102979.16;5098422;27;96479;-90
2021/10/09 05:15:22;;;;;;;;;;;;;;;12.64;45.12;102979.59;5100338;27;97803;-87
2021/10/09 05:17:48;;;;;;;;;;;;;;;12.49;44.50;102984.13;5114789;27;97547;-83
2021/10/09 05:20:16;;;;;;;;;;;;;;;12.72;44.61;102982.19;5102858;27;96463;-79
2021/10/09 05:22:42;;;;;;;;;;;;;;;12.20;44.97;102993.19;5104994;27;97557;-81
2021/10/09 05:25:09;;;;;;;;;;;;;;;12.17;45.11;102993.22;5104281;27;98296;-78
2021/10/09 05:30:16;;;;;;;;;;;;;;;12.22;44.79;103003.75;5104327;27;95835;-78
2021/10/09 05:32:48;;;;;;;;;;;;;;;12.37;45.17;103003.66;5105553;27;95959;-75
2021/10/09 05:35:16;;;;;;;;;;;;;;;11.91;45.59;103011.91;5104759;27;97836;-77
2021/10/09 05:37:42;;;;;;;;;;;;;;;12.39;44.75;103004.56;5104163;27;97999;-86
2021/10/09 05:40:09;;;;;;;;;;;;;;;12.51;44.10;103006.22;5104428;27;96479;-77
2021/10/09 05:42:37;;;;;;;;;;;;;;;12.52;44.07;103005.34;5086834;27;96079;-87
2021/10/09 05:45:03;;;;;;;;;;;;;;;12.31;44.37;103022.28;5088381;27;96451;-78
2021/10/09 05:47:31;;;;;;;;;;;;;;;12.28;44.54;103020.50;5083740;27;98098;-80
2021/10/09 05:49:58;;;;;;;;;;;;;;;12.62;44.16;103017.63;5084190;27;95855;-88
2021/10/09 05:52:33;;;;;;;;;;;;;;;12.44;44.16;103017.75;5084206;27;95998;-83
2021/10/09 05:55:08;;;;;;;;;;;;;;;12.92;43.90;103014.72;5083374;27;100416;-82
2021/10/09 05:57:42;;;;;;;;;;;;;;;12.47;43.76;103026.56;5098657;27;97865;-83
2021/10/09 06:00:28;;;;;;;;;;;;;;;11.61;45.63;103027.03;5104780;27;96117;-84
2021/10/09 06:25:37;;;;;;;;;;;;;;;12.12;44.25;103045.38;5091528;27;96659;-86
2021/10/09 06:42:34;;;;;;;;;;;;;;;12.34;43.80;103065.53;5071335;22;96400;-81
2021/10/09 06:45:11;;;;;;;;;;;;;;;12.75;43.02;103059.94;5059942;27;96045;-86
2021/10/09 06:47:44;;;;;;;;;;;;;;;13.12;41.93;103057.91;5051609;28;96763;-92
2021/10/09 06:50:41;;;;;;;;;;;;;;;13.23;41.69;103064.88;5048546;28;98895;-87
2021/10/09 07:01:35;;;;;;;;;;;;;;;13.38;40.95;103076.22;5035943;28;96297;-92
2021/10/09 07:04:05;;;;;;;;;;;;;;;13.42;40.99;103077.06;5033220;27;98728;-88
2021/10/09 07:06:32;;;;;;;;;;;;;;;13.72;40.38;103076.72;5052927;28;96802;-90
2021/10/09 07:08:59;;;;;;;;;;;;;;;13.68;40.13;103071.47;5032836;28;97016;-88
2021/10/09 07:11:25;;;;;;;;;;;;;;;13.75;40.17;103084.66;5049393;27;98052;-89
2021/10/09 07:16:35;;;;;;;;;;;;;;;13.80;39.80;103074.84;5048043;28;96246;-86
2021/10/09 07:19:01;;;;;;;;;;;;;;;13.71;40.04;103085.63;5060919;27;95975;-88
2021/10/09 07:21:30;;;;;;;;;;;;;;;13.77;39.97;103082.00;5042975;27;98164;-88
2021/10/09 07:23:56;;;;;;;;;;;;;;;14.21;38.94;103076.09;5060984;27;98134;-85
2021/10/09 07:26:25;;;;;;;;;;;;;;;14.23;39.11;103084.94;5061134;27;96253;-88
2021/10/09 07:28:52;;;;;;;;;;;;;;;14.34;38.83;103081.22;5054932;27;96024;-85
2021/10/09 07:31:20;;;;;;;;;;;;;;;13.49;39.79;103074.34;5059470;27;99413;-87
2021/10/09 07:33:46;;;;;;;;;;;;;;;14.01;38.67;103081.69;5033291;27;97630;-82
2021/10/09 07:36:13;;;;;;;;;;;;;;;14.30;38.36;103076.00;5037457;27;96616;-85
2021/10/09 07:38:39;;;;;;;;;;;;;;;14.17;38.65;103077.06;5055009;27;96829;-85
2021/10/09 07:46:29;;;;;;;;;;;;;;;14.06;38.26;103081.63;5053808;28;96834;-89
2021/10/09 07:48:55;;;;;;;;;;;;;;;14.14;38.09;103082.41;5034809;28;96582;-89
2021/10/09 07:51:22;;;;;;;;;;;;;;;13.79;38.68;103083.72;5041195;28;97870;-84
2021/10/09 07:53:49;;;;;;;;;;;;;;;13.73;38.67;103080.25;5035031;28;98868;-84
2021/10/09 07:56:15;;;;;;;;;;;;;;;13.71;38.67;103085.63;5036857;28;96832;-85
2021/10/09 07:58:43;;;;;;;;;;;;;;;13.98;38.21;103085.25;5039290;28;96874;-83
2021/10/09 08:01:10;;;;;;;;;;;;;;;14.20;38.01;103082.31;5039900;28;101306;-84
2021/10/09 08:03:40;;;;;;;;;;;;;;;14.81;36.97;103084.09;5044386;28;99212;-84
2021/10/09 08:06:09;;;;;;;;;;;;;;;14.44;37.28;103084.66;5052820;28;96817;-86
2021/10/09 08:08:35;;;;;;;;;;;;;;;14.86;36.45;103076.91;5050127;28;96456;-83
2021/10/09 08:11:02;;;;;;;;;;;;;;;15.17;36.13;103078.16;5055920;27;98288;-84
2021/10/09 08:13:28;;;;;;;;;;;;;;;15.36;35.23;103082.22;5052860;28;97759;-85
2021/10/09 08:15:54;;;;;;;;;;;;;;;15.11;35.47;103079.13;5040043;28;97744;-85
2021/10/09 08:18:22;;;;;;;;;;;;;;;15.22;36.13;103075.44;5078790;22;96413;-82
2021/10/09 08:21:00;;;;;;;;;;;;;;;15.61;35.36;103074.72;5025711;28;97790;-85
2021/10/09 08:23:32;;;;;;;;;;;;;;;15.83;34.71;103080.47;5045031;27;97723;-85
2021/10/09 08:26:31;;;;;;;;;;;;;;;15.73;34.75;103078.91;5047775;27;96582;-86
2021/10/09 08:40:12;;;;;;;;;;;;;;;16.47;33.76;103084.41;4967228;28;96304;-79
2021/10/09 08:42:40;;;;;;;;;;;;;;;15.81;34.55;103095.63;5003670;28;99604;-82
2021/10/09 08:45:08;;;;;;;;;;;;;;;15.79;34.67;103097.44;5036086;28;98995;-84
2021/10/09 08:47:38;;;;;;;;;;;;;;;15.49;34.61;103093.56;5036765;28;97004;-83
2021/10/09 08:50:06;;;;;;;;;;;;;;;15.75;34.35;103103.75;5038618;28;96469;-86
2021/10/09 08:52:50;;;;;;;;;;;;;;;16.45;33.18;103096.91;5043704;27;97851;-86
2021/10/09 08:55:23;;;;;;;;;;;;;;;16.37;33.16;103104.19;5032813;28;98160;-84
2021/10/09 08:57:56;;;;;;;;;;;;;;;16.81;32.71;103095.19;5025831;28;96624;-84
2021/10/09 09:00:38;;;;;;;;;;;;;;;16.88;32.37;103096.78;5033237;28;96860;-84
2021/10/09 09:03:07;;;;;;;;;;;;;;;16.70;32.70;103101.66;5101188;22;99429;-83
2021/10/09 09:33:36;;;;;;;;;;;;;;;17.91;29.54;103084.22;5058518;27;96798;-84
2021/10/09 09:36:22;;;;;;;;;;;;;;;18.09;29.17;103089.94;5063371;27;96941;-82
2021/10/09 09:38:56;;;;;;;;;;;;;;;18.51;28.88;103085.06;5063939;27;100072;-84
2021/10/09 09:41:25;;;;;;;;;;;;;;;18.02;29.14;103083.00;5068844;27;96750;-84
2021/10/09 09:43:54;;;;;;;;;;;;;;;17.91;29.67;103084.22;5078219;27;96955;-83
2021/10/09 09:46:21;;;;;;;;;;;;;;;17.48;29.84;103080.97;5072825;27;97921;-85
2021/10/09 09:48:52;;;;;;;;;;;;;;;17.95;29.44;103085.00;5072950;27;100489;-86
2021/10/09 09:51:23;;;;;;;;;;;;;;;18.09;29.17;103076.56;5073736;27;96636;-85
2021/10/09 09:56:31;;;;;;;;;;;;;;;17.98;29.26;103076.00;5063137;27;98965;-83
2021/10/09 10:01:51;;;;;;;;;;;;;;;18.17;28.98;103071.84;5079907;27;95907;-86
2021/10/09 10:04:17;;;;;;;;;;;;;;;18.33;28.92;103068.66;5082259;27;96561;-83
2021/10/09 10:06:44;;;;;;;;;;;;;;;17.71;29.12;103064.31;5060096;27;97734;-85
2021/10/09 10:09:12;;;;;;;;;;;;;;;18.00;29.18;103067.00;5072858;27;97967;-83
2021/10/09 10:11:42;;;;;;;;;;;;;;;18.63;28.46;103066.84;5048546;27;96867;-84
2021/10/09 10:17:01;;;;;;;;;;;;;;;18.75;28.24;103060.19;5075670;27;98542;-85
2021/10/09 10:19:47;;;;;;;;;;;;;;;18.36;29.25;103058.78;5076873;27;99223;-86
2021/10/09 10:22:14;;;;;;;;;;;;;;;17.27;29.57;103063.69;5056160;28;96653;-83
2021/10/09 10:24:45;;;;;;;;;;;;;;;17.62;29.54;103048.53;5065841;27;96452;-82
2021/10/09 10:27:26;;;;;;;;;;;;;;;18.23;28.83;103063.63;5076741;27;99254;-84
2021/10/09 10:30:20;;;;;;;;;;;;;;;18.56;28.62;103059.94;5070503;27;96944;-84
2021/10/09 10:33:18;;;;;;;;;;;;;;;18.12;29.15;103053.25;5073548;27;96631;-85
2021/10/09 10:35:45;;;;;;;;;;;;;;;18.42;28.42;103045.19;5074696;27;96916;-87
2021/10/09 10:38:41;;;;;;;;;;;;;;;18.96;28.15;103046.09;5057775;27;96714;-85
2021/10/09 10:41:09;;;;;;;;;;;;;;;19.15;28.49;103042.75;5074706;27;100038;-85
2021/10/09 10:43:45;;;;;;;;;;;;;;;18.91;27.98;103039.13;5076154;27;96860;-85
2021/10/09 10:46:34;;;;;;;;;;;;;;;18.83;28.32;103033.16;5075138;27;96630;-84
2021/10/09 10:49:02;;;;;;;;;;;;;;;19.07;28.23;103037.66;5073774;27;97661;-85
2021/10/09 10:51:45;;;;;;;;;;;;;;;18.93;29.00;103035.47;5073993;27;98041;-84
2021/10/09 10:54:16;;;;;;;;;;;;;;;18.70;28.84;103038.94;5081232;27;96013;-85
2021/10/09 10:57:02;;;;;;;;;;;;;;;18.35;28.78;103036.50;5078054;27;96627;-85
2021/10/09 10:59:29;;;;;;;;;;;;;;;18.65;29.30;103038.19;5078596;27;98951;-83
2021/10/09 11:02:10;;;;;;;;;;;;;;;18.73;29.32;103026.34;5080139;27;99389;-82
2021/10/09 11:07:20;;;;;;;;;;;;;;;18.28;29.22;103029.56;5079143;27;96562;-85
2021/10/09 11:09:48;;;;;;;;;;;;;;;18.59;28.51;103029.47;5081968;27;97772;-80
2021/10/09 11:12:21;;;;;;;;;;;;;;;18.79;28.53;103023.47;5082148;27;96337;-80
2021/10/09 11:14:49;;;;;;;;;;;;;;;18.42;29.05;103026.47;5081519;27;96075;-82
2021/10/09 11:17:17;;;;;;;;;;;;;;;18.43;28.99;103022.88;5081379;27;96051;-82
2021/10/09 11:19:45;;;;;;;;;;;;;;;18.33;29.28;103022.28;5080665;27;96511;-83
2021/10/09 11:22:11;;;;;;;;;;;;;;;18.02;29.45;103021.47;5081438;27;98077;-83
2021/10/09 11:24:42;;;;;;;;;;;;;;;18.42;29.33;103015.75;5079844;27;96951;-87
2021/10/09 11:27:08;;;;;;;;;;;;;;;18.89;28.96;103006.16;5074059;27;96518;-83
2021/10/09 11:29:35;;;;;;;;;;;;;;;18.49;29.24;103012.84;5077053;27;98888;-85
2021/10/09 11:32:02;;;;;;;;;;;;;;;18.22;29.15;103014.59;5071869;27;97713;-83
2021/10/09 11:37:13;;;;;;;;;;;;;;;17.62;29.94;103000.41;5075576;27;96729;-84
2021/10/09 11:39:45;;;;;;;;;;;;;;;17.42;30.39;102999.16;5071039;27;99095;-80
2021/10/09 11:42:13;;;;;;;;;;;;;;;18.24;29.59;103006.53;5051334;27;96707;-82
2021/10/09 11:44:49;;;;;;;;;;;;;;;18.74;28.61;103004.00;5061788;27;96847;-83
2021/10/09 11:47:34;;;;;;;;;;;;;;;18.83;28.45;103001.03;5066696;27;96706;-84
2021/10/09 11:55:34;;;;;;;;;;;;;;;18.54;28.51;102989.44;5050477;28;96892;-86
2021/10/09 12:00:48;;;;;;;;;;;;;;;18.89;27.73;102982.94;5101419;27;96359;-87
2021/10/09 12:03:34;;;;;;;;;;;;;;;19.05;27.90;102988.59;5098274;27;98106;-86
2021/10/09 12:06:08;;;;;;;;;;;;;;;19.07;28.18;102990.31;5079165;27;96750;-83
2021/10/09 12:11:29;;;;;;;;;;;;;;;18.53;28.02;102987.69;5074238;27;96611;-87
2021/10/09 12:21:36;;;;;;;;;;;;;;;18.51;28.03;102973.47;5068480;22;98473;-86
2021/10/09 12:27:05;;;;;;;;;;;;;;;18.67;27.52;102974.75;5045267;27;96538;-88
2021/10/09 12:29:38;;;;;;;;;;;;;;;19.05;26.73;102968.06;5060820;27;96373;-88
2021/10/09 12:32:26;;;;;;;;;;;;;;;18.65;27.61;102968.56;5039308;28;100133;-86
2021/10/09 12:35:03;;;;;;;;;;;;;;;18.60;27.95;102966.97;5042869;27;98644;-89
2021/10/09 12:37:34;;;;;;;;;;;;;;;18.63;27.92;102973.13;5031542;28;96168;-85
2021/10/09 12:45:11;;;;;;;;;;;;;;;20.07;27.16;102952.56;5536459;22;99738;-90
2021/10/09 12:50:18;;;;;;;;;;;;;;;20.30;25.72;102953.38;5617804;22;100408;-85
2021/10/09 12:52:48;;;;;;;;;;;;;;;20.47;25.87;102954.53;5001684;28;96660;-83
2021/10/09 12:55:15;;;;;;;;;;;;;;;19.93;26.90;102950.44;5009797;28;98966;-84
2021/10/09 12:57:48;;;;;;;;;;;;;;;20.47;26.69;102946.47;5018582;28;97657;-85
2021/10/09 13:00:15;;;;;;;;;;;;;;;20.88;26.20;102948.22;5002027;28;96027;-79
2021/10/09 13:02:42;;;;;;;;;;;;;;;21.18;26.24;102950.53;5007492;28;97170;-79
2021/10/09 13:05:09;;;;;;;;;;;;;;;20.56;25.62;102935.31;4999737;28;99709;-82
2021/10/09 13:07:36;;;;;;;;;;;;;;;20.41;25.19;102947.59;5009804;28;95931;-86
2021/10/09 13:10:04;;;;;;;;;;;;;;;19.59;25.84;102944.66;4984985;28;97788;-88
2021/10/09 13:12:31;;;;;;;;;;;;;;;20.62;25.05;102941.28;4998832;28;98209;-86
2021/10/09 13:14:58;;;;;;;;;;;;;;;20.41;25.00;102936.00;5000410;28;98000;-86
2021/10/09 13:17:25;;;;;;;;;;;;;;;20.05;25.60;102923.09;4993961;28;96720;-86
2021/10/09 13:19:53;;;;;;;;;;;;;;;19.88;25.68;102934.53;4981929;28;96670;-85
2021/10/09 13:22:20;;;;;;;;;;;;;;;21.15;24.44;102930.00;4996305;28;97154;-90
2021/10/09 13:24:46;;;;;;;;;;;;;;;21.97;23.75;102927.97;4994022;28;98955;-86
2021/10/09 13:27:14;;;;;;;;;;;;;;;21.72;23.78;102931.84;5004747;28;96471;-87
2021/10/09 13:29:41;;;;;;;;;;;;;;;22.53;22.80;102926.00;4998009;28;96528;-84
2021/10/09 13:32:07;;;;;;;;;;;;;;;22.05;23.65;102921.28;5014819;28;98200;-86
2021/10/09 13:34:33;;;;;;;;;;;;;;;21.74;24.04;102923.66;5018275;28;96674;-85
2021/10/09 13:37:00;;;;;;;;;;;;;;;21.74;24.35;102921.84;5008930;28;96652;-85
2021/10/09 13:39:28;;;;;;;;;;;;;;;22.15;23.67;102919.00;4997306;28;96578;-86
2021/10/09 13:41:54;;;;;;;;;;;;;;;22.25;23.26;102914.91;5012813;28;97500;-87
2021/10/09 13:44:22;;;;;;;;;;;;;;;22.85;22.79;102916.25;5016146;28;98091;-87
2021/10/09 13:46:51;;;;;;;;;;;;;;;22.35;23.45;102910.78;5002512;28;96648;-85
2021/10/09 13:49:19;;;;;;;;;;;;;;;21.06;24.46;102909.78;4980530;28;96751;-85
2021/10/09 13:51:45;;;;;;;;;;;;;;;21.28;24.28;102916.88;4999715;28;97577;-87
2021/10/09 13:54:12;;;;;;;;;;;;;;;20.83;24.73;102918.00;4999647;28;97684;-87
2021/10/09 13:56:38;;;;;;;;;;;;;;;20.34;25.21;102902.28;5011050;28;96600;-85
2021/10/09 13:59:04;;;;;;;;;;;;;;;20.61;25.28;102914.53;4999258;28;96639;-85
2021/10/09 14:01:32;;;;;;;;;;;;;;;20.90;24.83;102911.41;4999057;28;98094;-87
2021/10/09 14:03:58;;;;;;;;;;;;;;;20.61;25.49;102901.94;4996524;28;96625;-85
2021/10/09 14:06:25;;;;;;;;;;;;;;;20.96;24.78;102908.44;4997512;28;96668;-87
2021/10/09 14:08:53;;;;;;;;;;;;;;;20.41;25.81;102893.91;4991845;28;96873;-87
2021/10/09 14:11:21;;;;;;;;;;;;;;;19.94;26.11;102903.03;4990353;28;100415;-87
2021/10/09 14:13:48;;;;;;;;;;;;;;;19.58;26.83;102899.97;5010138;28;98467;-88
2021/10/09 14:16:15;;;;;;;;;;;;;;;19.57;26.83;102896.44;5008483;28;97331;-87
2021/10/09 14:18:45;;;;;;;;;;;;;;;19.73;26.45;102888.66;4991497;28;96421;-84
2021/10/09 14:21:12;;;;;;;;;;;;;;;19.62;26.73;102888.22;4991231;28;99518;-84
2021/10/09 14:23:38;;;;;;;;;;;;;;;19.37;27.15;102888.25;4986146;28;98794;-83
2021/10/09 14:26:04;;;;;;;;;;;;;;;19.21;27.73;102887.09;4986210;28;96891;-81
2021/10/09 14:28:31;;;;;;;;;;;;;;;19.05;27.33;102889.47;4988611;28;96818;-80
2021/10/09 14:31:03;;;;;;;;;;;;;;;19.22;27.37;102879.00;4999853;28;102078;-82
2021/10/09 14:33:29;;;;;;;;;;;;;;;19.44;26.97;102879.91;4980341;28;99418;-82
2021/10/09 14:35:56;;;;;;;;;;;;;;;18.88;27.88;102881.19;4986547;28;97208;-79
2021/10/09 14:38:23;;;;;;;;;;;;;;;19.59;26.86;102883.84;4981081;28;96960;-80
2021/10/09 14:40:49;;;;;;;;;;;;;;;19.64;27.06;102875.59;4978097;28;98204;-80
2021/10/09 14:43:16;;;;;;;;;;;;;;;19.93;26.77;102869.94;5006290;28;96747;-81
2021/10/09 14:45:43;;;;;;;;;;;;;;;20.08;26.34;102871.13;5004422;28;97052;-80
2021/10/09 14:48:19;;;;;;;;;;;;;;;19.94;27.05;102874.38;5007176;28;95984;-81
2021/10/09 14:53:49;;;;;;;;;;;;;;;18.84;28.28;102875.06;4981199;28;96780;-82
2021/10/09 15:18:21;;;;;;;;;;;;;;;18.41;28.93;102859.63;4962233;28;96896;-78
2021/10/09 15:20:47;;;;;;;;;;;;;;;18.52;29.06;102862.78;4979212;28;97526;-80
2021/10/09 15:23:14;;;;;;;;;;;;;;;18.69;28.65;102863.13;4990721;28;99117;-81
2021/10/09 15:25:43;;;;;;;;;;;;;;;18.28;29.00;102863.66;4979249;28;99935;-80
2021/10/09 15:28:09;;;;;;;;;;;;;;;18.35;29.43;102865.19;4978475;28;97333;-80
2021/10/09 15:30:36;;;;;;;;;;;;;;;18.31;29.59;102866.25;4976434;28;97110;-81
2021/10/09 15:33:03;;;;;;;;;;;;;;;18.38;29.52;102865.06;4978687;28;98987;-80
2021/10/09 15:35:31;;;;;;;;;;;;;;;17.72;30.40;102869.06;4981455;28;101276;-79
2021/10/09 15:37:58;;;;;;;;;;;;;;;17.92;29.81;102869.28;4984171;28;96679;-81
2021/10/09 15:40:25;;;;;;;;;;;;;;;18.39;29.54;102866.81;4985823;28;96985;-81
2021/10/09 15:42:55;;;;;;;;;;;;;;;18.10;29.79;102865.16;5000182;28;99325;-79